createdAt,value
2019-05-01T00:00:25.613Z,100.00
2019-05-01T00:03:07.897Z,100.00
2019-05-01T00:05:38.782Z,100.00
2019-05-01T00:08:08.136Z,100.00
2019-05-01T00:10:36.497Z,100.00
2019-05-01T00:13:05.839Z,100.00
2019-05-01T00:15:36.333Z,100.00
2019-05-01T00:18:05.107Z,100.00
2019-05-01T00:20:33.371Z,100.00
2019-05-01T00:23:01.559Z,100.00
2019-05-01T00:25:30.322Z,100.00
2019-05-01T00:27:59.680Z,100.00
2019-05-01T00:30:30.296Z,100.00
2019-05-01T00:32:58.711Z,100.00
2019-05-01T00:35:27.373Z,100.00
2019-05-01T00:37:55.831Z,100.00
2019-05-01T00:40:23.968Z,100.00
2019-05-01T00:42:52.954Z,100.00
2019-05-01T00:45:21.778Z,100.00
2019-05-01T00:47:50.539Z,100.00
2019-05-01T00:50:19.302Z,100.00
2019-05-01T00:52:48.025Z,100.00
2019-05-01T00:55:35.397Z,100.00
2019-05-01T00:58:18.094Z,100.00
2019-05-01T01:01:21.272Z,100.00
2019-05-01T01:03:50.042Z,100.00
2019-05-01T01:06:18.190Z,100.00
2019-05-01T01:08:46.530Z,100.00
2019-05-01T01:11:14.761Z,100.00
2019-05-01T01:13:42.966Z,100.00
2019-05-01T01:16:11.629Z,100.00
2019-05-01T01:18:40.163Z,100.00
2019-05-01T01:21:09.065Z,100.00
2019-05-01T01:23:38.795Z,100.00
2019-05-01T01:26:07.543Z,100.00
2019-05-01T01:28:36.209Z,100.00
2019-05-01T01:31:04.590Z,100.00
2019-05-01T01:33:32.930Z,100.00
2019-05-01T01:36:01.770Z,100.00
2019-05-01T01:38:30.045Z,100.00
2019-05-01T01:40:58.584Z,100.00
2019-05-01T01:43:52.733Z,100.00
2019-05-01T01:46:23.241Z,100.00
2019-05-01T01:48:51.423Z,100.00
2019-05-01T01:51:20.567Z,100.00
2019-05-01T01:53:50.844Z,100.00
2019-05-01T01:56:19.538Z,100.00
2019-05-01T01:58:48.307Z,100.00
2019-05-01T02:01:36.320Z,100.00
2019-05-01T02:04:12.740Z,100.00
2019-05-01T02:06:40.886Z,100.00
2019-05-01T02:09:10.032Z,100.00
2019-05-01T02:11:38.268Z,100.00
2019-05-01T02:14:06.444Z,100.00
2019-05-01T02:16:34.593Z,100.00
2019-05-01T02:19:03.211Z,100.00
2019-05-01T02:21:31.605Z,100.00
2019-05-01T02:23:59.783Z,100.00
2019-05-01T02:26:31.818Z,100.00
2019-05-01T02:29:07.310Z,100.00
2019-05-01T02:31:41.797Z,100.00
2019-05-01T02:34:10.993Z,100.00
2019-05-01T02:36:41.025Z,100.00
2019-05-01T02:39:09.457Z,100.00
2019-05-01T02:41:42.687Z,100.00
2019-05-01T02:44:21.196Z,100.00
2019-05-01T02:46:52.752Z,100.00
2019-05-01T02:49:51.602Z,100.00
2019-05-01T02:52:24.593Z,100.00
2019-05-01T02:54:56.689Z,100.00
2019-05-01T02:57:26.544Z,100.00
2019-05-01T02:59:57.343Z,100.00
2019-05-01T03:02:27.942Z,100.00
2019-05-01T03:04:58.363Z,100.00
2019-05-01T03:07:32.858Z,100.00
2019-05-01T03:10:03.658Z,100.00
2019-05-01T03:12:37.842Z,100.00
2019-05-01T03:15:06.426Z,100.00
2019-05-01T03:17:55.541Z,100.00
2019-05-01T03:20:35.228Z,100.00
2019-05-01T03:23:36.072Z,100.00
2019-05-01T03:26:05.073Z,100.00
2019-05-01T03:28:33.400Z,100.00
2019-05-01T03:31:02.634Z,100.00
2019-05-01T03:33:31.613Z,100.00
2019-05-01T03:36:00.193Z,100.00
2019-05-01T03:38:29.642Z,100.00
2019-05-01T03:41:00.027Z,100.00
2019-05-01T03:43:28.389Z,100.00
2019-05-01T03:45:57.066Z,100.00
2019-05-01T03:48:26.462Z,100.00
2019-05-01T03:50:54.855Z,100.00
2019-05-01T03:53:24.794Z,100.00
2019-05-01T03:55:53.690Z,100.00
2019-05-01T03:58:22.537Z,100.00
2019-05-01T04:01:06.644Z,100.00
2019-05-01T04:03:40.548Z,100.00
2019-05-01T04:06:09.031Z,100.00
2019-05-01T04:08:38.003Z,100.00
2019-05-01T04:11:06.680Z,100.00
2019-05-01T04:13:34.841Z,100.00
2019-05-01T04:16:04.087Z,100.00
2019-05-01T04:18:33.361Z,100.00
2019-05-01T04:21:02.577Z,100.00
2019-05-01T04:23:31.227Z,100.00
2019-05-01T04:25:59.921Z,100.00
2019-05-01T04:29:03.841Z,100.00
2019-05-01T04:31:51.682Z,100.00
2019-05-01T04:34:30.052Z,100.00
2019-05-01T04:37:00.774Z,100.00
2019-05-01T04:39:29.255Z,100.00
2019-05-01T04:41:57.817Z,100.00
2019-05-01T04:44:26.249Z,100.00
2019-05-01T04:46:55.062Z,100.00
2019-05-01T04:49:23.393Z,100.00
2019-05-01T04:51:51.885Z,100.00
2019-05-01T04:54:21.768Z,100.00
2019-05-01T04:56:51.060Z,100.00
2019-05-01T04:59:19.869Z,100.00
2019-05-01T05:01:57.070Z,100.00
2019-05-01T05:04:25.737Z,100.00
2019-05-01T05:06:54.707Z,100.00
2019-05-01T05:09:43.545Z,100.00
2019-05-01T05:12:22.027Z,100.00
2019-05-01T05:14:56.541Z,100.00
2019-05-01T05:17:25.797Z,100.00
2019-05-01T05:19:55.021Z,100.00
2019-05-01T05:22:24.488Z,100.00
2019-05-01T05:24:54.451Z,100.00
2019-05-01T05:27:24.359Z,100.00
2019-05-01T05:29:56.335Z,100.00
2019-05-01T05:32:27.708Z,100.00
2019-05-01T05:34:59.101Z,100.00
2019-05-01T05:37:37.470Z,100.00
2019-05-01T05:40:05.961Z,100.00
2019-05-01T05:42:34.551Z,100.00
2019-05-01T05:45:03.497Z,100.00
2019-05-01T05:47:31.999Z,100.00
2019-05-01T05:50:00.541Z,100.00
2019-05-01T05:52:38.205Z,100.00
2019-05-01T05:55:29.107Z,100.00
2019-05-01T05:58:19.780Z,100.00
2019-05-01T06:01:17.550Z,100.00
2019-05-01T06:04:07.234Z,100.00
2019-05-01T06:07:10.313Z,100.00
2019-05-01T06:10:03.993Z,100.00
2019-05-01T06:12:52.711Z,100.00
2019-05-01T06:15:36.682Z,100.00
2019-05-01T06:18:11.175Z,100.00
2019-05-01T06:20:57.041Z,100.00
2019-05-01T06:23:37.324Z,100.00
2019-05-01T06:26:43.736Z,100.00
2019-05-01T06:29:12.943Z,100.00
2019-05-01T06:31:41.786Z,100.00
2019-05-01T06:34:10.071Z,100.00
2019-05-01T06:36:38.313Z,100.00
2019-05-01T06:39:11.858Z,100.00
2019-05-01T06:41:43.002Z,100.00
2019-05-01T06:44:33.544Z,99.79
2019-05-01T06:47:21.801Z,99.42
2019-05-01T06:50:22.543Z,98.34
2019-05-01T06:52:51.753Z,97.22
2019-05-01T06:55:22.445Z,95.94
2019-05-01T06:57:51.385Z,94.90
2019-05-01T07:00:19.658Z,94.67
2019-05-01T07:02:50.108Z,94.42
2019-05-01T07:05:21.555Z,93.75
2019-05-01T07:07:54.820Z,93.61
2019-05-01T07:10:31.602Z,93.50
2019-05-01T07:13:04.792Z,93.90
2019-05-01T07:15:30.504Z,93.14
2019-05-01T07:18:00.514Z,91.99
2019-05-01T07:20:54.307Z,91.49
2019-05-01T07:23:22.688Z,91.46
2019-05-01T07:25:51.133Z,90.32
2019-05-01T07:28:19.562Z,89.84
2019-05-01T07:31:06.201Z,89.18
2019-05-01T07:33:35.494Z,88.19
2019-05-01T07:36:07.010Z,89.07
2019-05-01T07:38:38.371Z,89.35
2019-05-01T07:41:05.661Z,89.07
2019-05-01T07:43:48.062Z,89.13
2019-05-01T07:46:39.474Z,90.37
2019-05-01T07:49:08.272Z,88.33
2019-05-01T07:51:42.413Z,88.23
2019-05-01T07:54:09.253Z,87.97
2019-05-01T07:56:37.676Z,88.38
2019-05-01T07:59:06.386Z,87.63
2019-05-01T08:01:58.379Z,87.82
2019-05-01T08:04:35.998Z,87.02
2019-05-01T08:06:58.704Z,85.57
2019-05-01T08:09:27.766Z,85.39
2019-05-01T08:11:56.078Z,86.94
2019-05-01T08:14:24.665Z,86.02
2019-05-01T08:16:53.065Z,85.76
2019-05-01T08:19:26.899Z,86.21
2019-05-01T08:22:10.642Z,83.81
2019-05-01T08:24:39.023Z,84.52
2019-05-01T08:27:10.606Z,83.59
2019-05-01T08:30:12.790Z,84.73
2019-05-01T08:32:51.368Z,85.23
2019-05-01T08:35:21.371Z,83.99
2019-05-01T08:37:49.544Z,82.82
2019-05-01T08:40:20.433Z,83.10
2019-05-01T08:42:47.863Z,82.39
2019-05-01T08:45:40.641Z,82.24
2019-05-01T08:48:17.455Z,81.65
2019-05-01T08:50:45.820Z,80.35
2019-05-01T08:53:18.087Z,80.65
2019-05-01T08:55:45.084Z,79.88
2019-05-01T08:58:15.929Z,78.61
2019-05-01T09:00:45.046Z,80.44
2019-05-01T09:03:18.680Z,79.40
2019-05-01T09:05:47.589Z,79.23
2019-05-01T09:08:16.758Z,79.73
2019-05-01T09:10:44.996Z,79.29
2019-05-01T09:13:13.253Z,78.55
2019-05-01T09:15:43.789Z,78.64
2019-05-01T09:18:12.288Z,79.40
2019-05-01T09:20:41.617Z,79.91
2019-05-01T09:23:14.315Z,79.33
2019-05-01T09:25:46.753Z,79.46
2019-05-01T09:28:21.442Z,79.00
2019-05-01T09:31:01.637Z,77.88
2019-05-01T09:33:26.249Z,77.57
2019-05-01T09:35:56.415Z,77.02
2019-05-01T09:38:24.663Z,77.52
2019-05-01T09:40:53.124Z,77.05
2019-05-01T09:43:21.777Z,75.67
2019-05-01T09:45:50.165Z,75.15
2019-05-01T09:48:18.735Z,74.70
2019-05-01T09:50:53.801Z,75.59
2019-05-01T09:53:34.345Z,76.73
2019-05-01T09:56:09.857Z,76.35
2019-05-01T09:58:38.181Z,76.39
2019-05-01T10:01:06.488Z,76.19
2019-05-01T10:03:34.656Z,76.74
2019-05-01T10:06:03.506Z,75.08
2019-05-01T10:08:34.944Z,74.23
2019-05-01T10:11:05.109Z,73.37
2019-05-01T10:13:33.062Z,73.10
2019-05-01T10:16:01.590Z,73.38
2019-05-01T10:18:30.349Z,74.42
2019-05-01T10:20:59.235Z,72.13
2019-05-01T10:23:27.453Z,70.87
2019-05-01T10:25:57.581Z,72.60
2019-05-01T10:28:33.968Z,73.90
2019-05-01T10:31:19.115Z,72.27
2019-05-01T10:33:48.552Z,72.54
2019-05-01T10:36:33.258Z,73.18
2019-05-01T10:39:01.527Z,72.62
2019-05-01T10:41:30.488Z,71.90
2019-05-01T10:43:59.349Z,72.57
2019-05-01T10:46:27.576Z,72.96
2019-05-01T10:48:57.388Z,72.00
2019-05-01T10:51:25.789Z,72.74
2019-05-01T10:53:54.143Z,70.62
2019-05-01T10:56:22.514Z,71.35
2019-05-01T10:58:50.681Z,71.83
2019-05-01T11:01:38.464Z,71.40
2019-05-01T11:04:07.330Z,70.07
2019-05-01T11:06:35.796Z,68.12
2019-05-01T11:09:06.635Z,67.20
2019-05-01T11:11:34.907Z,68.09
2019-05-01T11:14:03.481Z,67.12
2019-05-01T11:16:32.565Z,66.88
2019-05-01T11:19:00.801Z,71.00
2019-05-01T11:21:29.407Z,67.88
2019-05-01T11:23:57.971Z,67.21
2019-05-01T11:26:28.270Z,68.69
2019-05-01T11:28:56.531Z,69.90
2019-05-01T11:31:31.305Z,70.04
2019-05-01T11:34:21.990Z,70.05
2019-05-01T11:37:10.997Z,70.90
2019-05-01T11:39:51.834Z,70.30
2019-05-01T11:42:20.089Z,70.02
2019-05-01T11:44:49.686Z,68.90
2019-05-01T11:47:18.335Z,68.93
2019-05-01T11:49:46.946Z,68.79
2019-05-01T11:52:15.133Z,68.80
2019-05-01T11:54:43.367Z,69.36
2019-05-01T11:57:11.880Z,68.23
2019-05-01T11:59:40.138Z,64.61
2019-05-01T12:02:08.681Z,64.79
2019-05-01T12:04:37.226Z,66.10
2019-05-01T12:07:05.602Z,67.51
2019-05-01T12:09:35.307Z,67.97
2019-05-01T12:12:07.453Z,68.29
2019-05-01T12:14:35.629Z,66.76
2019-05-01T12:17:16.912Z,67.97
2019-05-01T12:19:45.318Z,68.86
2019-05-01T12:22:13.546Z,67.95
2019-05-01T12:24:42.027Z,68.72
2019-05-01T12:27:10.224Z,67.80
2019-05-01T12:29:38.482Z,68.89
2019-05-01T12:32:06.754Z,68.05
2019-05-01T12:34:35.915Z,67.94
2019-05-01T12:37:22.329Z,67.33
2019-05-01T12:39:51.265Z,66.69
2019-05-01T12:42:21.518Z,66.48
2019-05-01T12:44:50.334Z,67.12
2019-05-01T12:47:25.094Z,66.42
2019-05-01T12:49:53.526Z,65.12
2019-05-01T12:52:53.925Z,66.43
2019-05-01T12:55:54.147Z,65.60
2019-05-01T12:58:22.350Z,66.93
2019-05-01T13:00:52.935Z,66.23
2019-05-01T13:03:21.882Z,66.25
2019-05-01T13:05:50.238Z,67.42
2019-05-01T13:08:18.446Z,68.01
2019-05-01T13:10:47.799Z,68.96
2019-05-01T13:13:15.996Z,66.83
2019-05-01T13:15:44.211Z,66.72
2019-05-01T13:18:12.399Z,66.28
2019-05-01T13:20:40.553Z,65.91
2019-05-01T13:23:08.771Z,67.28
2019-05-01T13:25:37.036Z,68.03
2019-05-01T13:28:23.930Z,67.03
2019-05-01T13:31:03.162Z,68.16
2019-05-01T13:33:31.773Z,68.62
2019-05-01T13:35:59.939Z,68.77
2019-05-01T13:38:28.533Z,67.39
2019-05-01T13:40:56.780Z,66.73
2019-05-01T13:43:25.197Z,65.37
2019-05-01T13:45:53.361Z,66.39
2019-05-01T13:48:22.061Z,65.08
2019-05-01T13:50:50.380Z,64.76
2019-05-01T13:53:18.971Z,63.82
2019-05-01T13:55:47.142Z,63.35
2019-05-01T13:58:15.787Z,61.67
2019-05-01T14:00:44.475Z,62.55
2019-05-01T14:03:12.730Z,63.55
2019-05-01T14:05:41.241Z,64.25
2019-05-01T14:08:09.505Z,64.47
2019-05-01T14:10:37.693Z,64.48
2019-05-01T14:13:06.687Z,62.82
2019-05-01T14:15:35.227Z,62.88
2019-05-01T14:18:03.415Z,64.56
2019-05-01T14:21:00.214Z,62.91
2019-05-01T14:23:54.117Z,64.51
2019-05-01T14:26:22.434Z,61.76
2019-05-01T14:28:50.645Z,61.20
2019-05-01T14:31:19.369Z,61.40
2019-05-01T14:33:47.841Z,60.66
2019-05-01T14:36:16.093Z,63.08
2019-05-01T14:38:45.004Z,63.24
2019-05-01T14:41:13.388Z,61.82
2019-05-01T14:43:41.881Z,62.63
2019-05-01T14:46:10.465Z,61.75
2019-05-01T14:48:38.714Z,62.71
2019-05-01T14:51:07.026Z,63.17
2019-05-01T14:53:35.325Z,63.30
2019-05-01T14:56:04.171Z,64.07
2019-05-01T14:58:32.479Z,64.32
2019-05-01T15:01:00.750Z,63.82
2019-05-01T15:03:29.638Z,63.90
2019-05-01T15:05:57.808Z,63.82
2019-05-01T15:08:26.004Z,64.50
2019-05-01T15:10:54.352Z,65.03
2019-05-01T15:13:32.870Z,67.43
2019-05-01T15:16:07.162Z,65.84
2019-05-01T15:18:54.238Z,65.92
2019-05-01T15:21:22.407Z,65.27
2019-05-01T15:23:53.610Z,65.54
2019-05-01T15:26:21.035Z,66.56
2019-05-01T15:28:49.302Z,66.11
2019-05-01T15:31:17.792Z,66.29
2019-05-01T15:33:48.076Z,67.57
2019-05-01T15:36:16.225Z,71.34
2019-05-01T15:38:44.658Z,69.24
2019-05-01T15:41:41.497Z,69.05
2019-05-01T15:44:18.167Z,69.42
2019-05-01T15:46:46.603Z,69.79
2019-05-01T15:49:15.726Z,66.70
2019-05-01T15:51:43.974Z,65.56
2019-05-01T15:54:13.577Z,63.49
2019-05-01T15:56:41.817Z,63.55
2019-05-01T15:59:10.102Z,64.40
2019-05-01T16:01:38.668Z,67.41
2019-05-01T16:04:07.244Z,69.30
2019-05-01T16:06:35.696Z,68.21
2019-05-01T16:09:06.512Z,69.36
2019-05-01T16:12:05.383Z,69.18
2019-05-01T16:14:34.952Z,68.79
2019-05-01T16:17:03.666Z,69.14
2019-05-01T16:19:33.653Z,70.27
2019-05-01T16:22:03.887Z,69.87
2019-05-01T16:24:50.696Z,70.70
2019-05-01T16:27:37.251Z,69.79
2019-05-01T16:30:12.373Z,70.32
2019-05-01T16:32:42.328Z,70.06
2019-05-01T16:35:10.698Z,70.45
2019-05-01T16:37:38.908Z,71.13
2019-05-01T16:40:44.108Z,71.96
2019-05-01T16:43:13.809Z,71.87
2019-05-01T16:45:42.093Z,71.76
2019-05-01T16:48:10.386Z,71.76
2019-05-01T16:50:38.562Z,71.54
2019-05-01T16:53:06.826Z,71.71
2019-05-01T16:55:35.016Z,72.62
2019-05-01T16:58:05.164Z,71.66
2019-05-01T17:01:02.054Z,72.13
2019-05-01T17:03:44.388Z,71.95
2019-05-01T17:06:22.023Z,73.04
2019-05-01T17:08:59.622Z,74.38
2019-05-01T17:11:29.369Z,73.60
2019-05-01T17:13:57.993Z,72.90
2019-05-01T17:16:26.481Z,72.93
2019-05-01T17:18:54.921Z,72.51
2019-05-01T17:21:23.109Z,72.42
2019-05-01T17:23:51.728Z,73.51
2019-05-01T17:26:20.227Z,73.90
2019-05-01T17:28:48.692Z,74.82
2019-05-01T17:31:16.881Z,74.38
2019-05-01T17:33:45.506Z,74.09
2019-05-01T17:36:14.216Z,74.77
2019-05-01T17:38:49.216Z,74.59
2019-05-01T17:41:12.507Z,75.89
2019-05-01T17:43:44.639Z,75.92
2019-05-01T17:46:12.046Z,76.51
2019-05-01T17:48:40.496Z,77.09
2019-05-01T17:51:08.684Z,76.37
2019-05-01T17:53:36.829Z,77.18
2019-05-01T17:56:05.275Z,76.64
2019-05-01T17:58:33.425Z,76.87
2019-05-01T18:01:27.760Z,77.77
2019-05-01T18:04:02.873Z,77.75
2019-05-01T18:06:33.381Z,78.14
2019-05-01T18:09:03.134Z,78.09
2019-05-01T18:11:32.461Z,78.23
2019-05-01T18:14:00.605Z,79.10
2019-05-01T18:16:29.154Z,78.76
2019-05-01T18:18:57.305Z,78.84
2019-05-01T18:21:25.759Z,78.99
2019-05-01T18:24:24.591Z,79.44
2019-05-01T18:27:20.451Z,78.85
2019-05-01T18:29:52.100Z,79.08
2019-05-01T18:32:36.350Z,78.43
2019-05-01T18:35:08.927Z,78.53
2019-05-01T18:37:41.882Z,78.65
2019-05-01T18:40:17.582Z,78.41
2019-05-01T18:42:45.772Z,78.48
2019-05-01T18:45:48.586Z,78.18
2019-05-01T18:48:17.599Z,79.25
2019-05-01T18:50:49.494Z,80.01
2019-05-01T18:53:17.312Z,80.44
2019-05-01T18:55:45.662Z,80.45
2019-05-01T18:58:15.508Z,80.89
2019-05-01T19:00:43.868Z,81.99
2019-05-01T19:03:12.228Z,82.09
2019-05-01T19:05:43.186Z,81.70
2019-05-01T19:08:11.070Z,81.51
2019-05-01T19:10:39.327Z,82.16
2019-05-01T19:13:07.961Z,82.28
2019-05-01T19:15:36.264Z,81.71
2019-05-01T19:18:06.018Z,80.98
2019-05-01T19:20:36.153Z,80.87
2019-05-01T19:23:04.901Z,80.57
2019-05-01T19:25:33.353Z,80.66
2019-05-01T19:28:03.299Z,80.09
2019-05-01T19:30:33.531Z,81.56
2019-05-01T19:33:05.360Z,80.90
2019-05-01T19:35:34.380Z,80.46
2019-05-01T19:38:04.207Z,81.00
2019-05-01T19:40:34.622Z,80.24
2019-05-01T19:43:03.535Z,79.83
2019-05-01T19:45:32.597Z,79.55
2019-05-01T19:48:01.009Z,79.70
2019-05-01T19:50:30.016Z,79.86
2019-05-01T19:52:59.183Z,80.14
2019-05-01T19:55:27.420Z,80.07
2019-05-01T19:57:55.682Z,80.51
2019-05-01T20:00:54.481Z,79.98
2019-05-01T20:03:24.040Z,80.26
2019-05-01T20:05:52.502Z,79.92
2019-05-01T20:08:20.991Z,79.25
2019-05-01T20:10:49.619Z,79.71
2019-05-01T20:13:17.775Z,79.72
2019-05-01T20:15:46.552Z,79.99
2019-05-01T20:18:14.789Z,79.52
2019-05-01T20:20:43.158Z,79.63
2019-05-01T20:23:11.341Z,80.24
2019-05-01T20:25:39.629Z,80.47
2019-05-01T20:28:07.851Z,81.40
2019-05-01T20:30:36.158Z,81.61
2019-05-01T20:33:08.150Z,81.28
2019-05-01T20:35:36.214Z,81.26
2019-05-01T20:38:04.466Z,81.11
2019-05-01T20:40:32.726Z,81.42
2019-05-01T20:43:05.741Z,80.60
2019-05-01T20:45:31.091Z,80.20
2019-05-01T20:47:59.325Z,80.14
2019-05-01T20:50:27.961Z,79.24
2019-05-01T20:52:56.140Z,79.86
2019-05-01T20:55:25.112Z,79.59
2019-05-01T20:58:12.883Z,80.79
2019-05-01T21:00:41.488Z,81.18
2019-05-01T21:03:09.689Z,81.70
2019-05-01T21:05:44.453Z,81.27
2019-05-01T21:08:15.680Z,81.29
2019-05-01T21:10:50.661Z,81.48
2019-05-01T21:13:23.081Z,81.64
2019-05-01T21:15:49.863Z,81.31
2019-05-01T21:18:20.986Z,81.08
2019-05-01T21:20:48.202Z,81.08
2019-05-01T21:23:16.389Z,81.32
2019-05-01T21:25:44.529Z,81.20
2019-05-01T21:28:14.213Z,81.37
2019-05-01T21:30:43.958Z,81.27
2019-05-01T21:33:13.909Z,81.22
2019-05-01T21:35:44.404Z,82.23
2019-05-01T21:38:13.071Z,82.50
2019-05-01T21:40:43.555Z,82.07
2019-05-01T21:43:13.448Z,82.51
2019-05-01T21:45:43.408Z,82.94
2019-05-01T21:48:13.633Z,82.74
2019-05-01T21:50:43.719Z,82.70
2019-05-01T21:53:12.972Z,82.48
2019-05-01T21:55:41.227Z,82.62
2019-05-01T21:58:09.953Z,83.17
2019-05-01T22:00:40.014Z,84.44
2019-05-01T22:03:08.635Z,83.80
2019-05-01T22:05:39.601Z,83.56
2019-05-01T22:08:08.859Z,83.11
2019-05-01T22:10:51.096Z,83.07
2019-05-01T22:13:08.642Z,83.34
2019-05-01T22:15:42.065Z,82.40
2019-05-01T22:18:31.246Z,82.49
2019-05-01T22:21:07.481Z,82.66
2019-05-01T22:23:55.212Z,82.76
2019-05-01T22:26:25.518Z,82.74
2019-05-01T22:28:57.033Z,83.18
2019-05-01T22:32:03.570Z,82.91
2019-05-01T22:34:45.099Z,82.67
2019-05-01T22:37:13.767Z,83.26
2019-05-01T22:39:44.124Z,82.79
2019-05-01T22:42:12.698Z,82.95
2019-05-01T22:44:42.942Z,82.71
2019-05-01T22:47:15.093Z,83.50
2019-05-01T22:49:42.065Z,83.21
2019-05-01T22:52:10.357Z,83.23
2019-05-01T22:54:39.333Z,82.85
2019-05-01T22:57:08.104Z,82.98
2019-05-01T22:59:36.717Z,82.83
2019-05-01T23:02:14.943Z,82.13
2019-05-01T23:04:43.576Z,82.29
2019-05-01T23:07:16.814Z,81.80
2019-05-01T23:09:42.110Z,82.26
2019-05-01T23:12:10.726Z,82.73
2019-05-01T23:14:39.460Z,82.50
2019-05-01T23:17:34.939Z,82.28
2019-05-01T23:20:05.630Z,81.88
2019-05-01T23:22:34.984Z,81.83
2019-05-01T23:25:04.671Z,82.17
2019-05-01T23:27:32.852Z,81.80
2019-05-01T23:30:01.951Z,81.77
2019-05-01T23:32:30.097Z,81.33
2019-05-01T23:34:58.793Z,81.45
2019-05-01T23:37:27.007Z,81.84
2019-05-01T23:39:55.851Z,81.99
2019-05-01T23:42:24.154Z,82.05
2019-05-01T23:44:52.574Z,81.39
2019-05-01T23:47:21.898Z,82.06
2019-05-01T23:49:52.592Z,82.22
2019-05-01T23:52:20.633Z,82.47
2019-05-01T23:54:48.834Z,83.03
2019-05-01T23:57:18.749Z,82.74
2019-05-01T23:59:47.988Z,83.12
